Time;durP1;ratioP1;P1;durP2;ratioP2;P2;SDS_P1;SDS_P2;PMS_P1;PMS_P2;Temp;Humidity;BMP_temperature;BMP_pressure;BME280_temperature;BME280_humidity;BME280_pressure;Samples;Min_cycle;Max_cycle;Signal;HPM_P1;HPM_P2
2024/04/11 00:02:21;;;;;;;2.80;2.07;;;10.80;99.90;;;;;;5436322;26;20260;-70
2024/04/11 00:04:46;;;;;;;3.30;2.17;;;10.80;99.90;;;;;;5434931;26;20241;-73
2024/04/11 00:07:12;;;;;;;3.53;2.17;;;10.80;99.90;;;;;;5436048;26;20276;-72
2024/04/11 00:09:38;;;;;;;2.70;2.47;;;10.80;99.90;;;;;;5434568;26;20679;-72
2024/04/11 00:12:04;;;;;;;6.60;2.37;;;10.70;99.90;;;;;;5394354;26;20250;-67
2024/04/11 00:14:29;;;;;;;4.07;1.80;;;10.70;99.90;;;;;;5435856;26;20303;-69
2024/04/11 00:16:55;;;;;;;3.03;2.20;;;10.70;99.90;;;;;;5432748;26;20477;-67
2024/04/11 00:19:21;;;;;;;3.70;2.17;;;10.70;99.90;;;;;;5437674;26;20230;-69
2024/04/11 00:21:50;;;;;;;3.97;2.47;;;10.80;99.90;;;;;;5436859;26;20708;-72
2024/04/11 00:24:16;;;;;;;5.83;2.47;;;10.80;99.90;;;;;;5442292;26;20234;-69
2024/04/11 00:26:42;;;;;;;3.50;2.07;;;10.80;99.90;;;;;;5440251;26;20538;-73
2024/04/11 00:29:10;;;;;;;3.77;2.10;;;10.80;99.90;;;;;;5443105;26;21342;-71
2024/04/11 00:31:36;;;;;;;5.63;2.40;;;10.80;99.90;;;;;;5440876;26;21130;-69
2024/04/11 00:34:16;;;;;;;3.60;2.20;;;10.80;99.90;;;;;;5439550;26;20455;-69
2024/04/11 00:36:44;;;;;;;4.27;2.10;;;10.80;99.90;;;;;;5424124;26;21674;-72
2024/04/11 00:39:18;;;;;;;3.43;2.20;;;10.80;99.90;;;;;;5394088;26;20475;-67
2024/04/11 00:41:47;;;;;;;5.50;2.40;;;10.80;99.90;;;;;;5438656;26;20515;-72
2024/04/11 00:44:24;;;;;;;6.30;2.20;;;10.90;99.90;;;;;;5438934;26;20531;-68
2024/04/11 00:46:53;;;;;;;6.30;2.60;;;10.90;99.90;;;;;;5439714;26;20471;-74
2024/04/11 00:49:20;;;;;;;3.27;2.03;;;10.90;99.90;;;;;;5438427;26;20520;-69
2024/04/11 00:51:47;;;;;;;5.10;2.20;;;10.90;99.90;;;;;;5439100;26;20460;-72
2024/04/11 00:54:15;;;;;;;6.23;2.37;;;11.00;99.90;;;;;;5437866;26;20471;-69
2024/04/11 00:56:42;;;;;;;3.90;1.87;;;10.90;99.90;;;;;;5440284;26;20459;-68
2024/04/11 00:59:09;;;;;;;6.87;2.43;;;11.00;99.90;;;;;;5439905;26;20471;-70
2024/04/11 01:01:35;;;;;;;2.50;1.80;;;10.90;99.90;;;;;;5435393;26;20471;-69
2024/04/11 01:04:05;;;;;;;5.87;2.57;;;11.00;99.90;;;;;;5439830;26;20515;-67
2024/04/11 01:07:06;;;;;;;4.60;2.23;;;11.00;99.90;;;;;;5408235;26;20513;-72
2024/04/11 01:09:30;;;;;;;3.83;2.13;;;10.90;99.90;;;;;;5439212;26;20527;-70
2024/04/11 01:11:56;;;;;;;5.87;2.33;;;11.00;99.90;;;;;;5439337;26;20471;-72
2024/04/11 01:14:23;;;;;;;4.37;1.97;;;11.00;99.90;;;;;;5438428;26;20571;-72
2024/04/11 01:16:49;;;;;;;3.27;1.70;;;11.00;99.90;;;;;;5438094;26;20455;-67
2024/04/11 01:19:15;;;;;;;4.43;2.67;;;11.00;99.90;;;;;;5438704;26;21076;-68
2024/04/11 01:21:41;;;;;;;3.97;2.20;;;11.00;99.90;;;;;;5438783;26;20539;-69
2024/04/11 01:24:07;;;;;;;4.23;1.87;;;11.00;99.90;;;;;;5439362;26;20234;-69
2024/04/11 01:26:35;;;;;;;4.10;2.00;;;11.00;99.90;;;;;;5439489;26;21108;-70
2024/04/11 01:29:02;;;;;;;3.00;1.83;;;11.00;99.90;;;;;;5439626;26;20545;-67
2024/04/11 01:31:30;;;;;;;3.80;2.07;;;11.00;99.90;;;;;;5436653;26;20455;-70
2024/04/11 01:33:56;;;;;;;7.50;2.23;;;11.10;99.90;;;;;;5438034;26;20522;-70
2024/04/11 01:36:22;;;;;;;5.63;2.17;;;11.00;99.90;;;;;;5438233;26;21325;-70
2024/04/11 01:38:48;;;;;;;4.30;1.90;;;11.00;99.90;;;;;;5436343;26;20990;-71
2024/04/11 01:41:14;;;;;;;3.07;1.87;;;11.00;99.90;;;;;;5438296;26;20578;-71
2024/04/11 01:43:40;;;;;;;3.70;1.97;;;11.00;99.90;;;;;;5438391;26;20539;-68
2024/04/11 01:46:07;;;;;;;6.50;1.77;;;11.00;99.90;;;;;;5440077;26;20230;-71
2024/04/11 01:48:33;;;;;;;6.37;2.43;;;11.00;99.90;;;;;;5436743;26;20483;-68
2024/04/11 01:50:59;;;;;;;4.60;1.97;;;11.00;99.90;;;;;;5438756;26;20585;-71
2024/04/11 01:53:24;;;;;;;4.70;2.03;;;10.90;99.90;;;;;;5439709;26;20280;-70
2024/04/11 01:55:50;;;;;;;2.40;1.43;;;11.00;99.90;;;;;;5439383;26;20379;-69
2024/04/11 01:58:17;;;;;;;3.30;1.97;;;11.00;99.90;;;;;;5440470;26;20354;-71
2024/04/11 02:00:44;;;;;;;3.23;1.93;;;11.00;99.90;;;;;;5435517;26;20234;-66
2024/04/11 02:03:11;;;;;;;6.07;1.90;;;11.00;99.90;;;;;;5390971;26;20526;-70
2024/04/11 02:05:37;;;;;;;6.37;2.10;;;10.80;99.90;;;;;;5438907;26;20550;-68
2024/04/11 02:08:03;;;;;;;2.73;1.70;;;10.80;99.90;;;;;;5439575;26;20459;-70
2024/04/11 02:10:32;;;;;;;2.43;1.73;;;10.80;99.90;;;;;;5436484;26;20463;-75
2024/04/11 02:12:58;;;;;;;4.77;2.17;;;10.80;99.90;;;;;;5438451;26;20297;-69
2024/04/11 02:15:27;;;;;;;4.30;2.83;;;10.80;99.90;;;;;;5436095;26;20467;-72
2024/04/11 02:17:53;;;;;;;5.20;1.93;;;10.80;99.90;;;;;;5435221;26;20471;-65
2024/04/11 02:20:20;;;;;;;3.33;1.70;;;10.80;99.90;;;;;;5437889;26;20519;-66
2024/04/11 02:22:49;;;;;;;3.50;2.23;;;10.80;99.90;;;;;;5393413;26;20246;-70
2024/04/11 02:25:14;;;;;;;2.30;1.73;;;10.80;99.90;;;;;;5437833;26;20475;-71
2024/04/11 02:27:40;;;;;;;2.37;1.60;;;10.80;99.90;;;;;;5437273;26;20455;-72
2024/04/11 02:30:09;;;;;;;3.80;2.30;;;10.80;99.90;;;;;;5438035;26;20263;-71
2024/04/11 02:32:41;;;;;;;4.03;1.43;;;10.90;99.90;;;;;;5436151;26;20341;-71
2024/04/11 02:35:10;;;;;;;2.57;1.80;;;10.90;99.90;;;;;;5437126;26;20608;-72
2024/04/11 02:37:36;;;;;;;5.23;1.60;;;11.00;99.90;;;;;;5437505;26;20875;-71
2024/04/11 02:40:02;;;;;;;4.43;1.70;;;10.90;99.90;;;;;;5437164;26;20580;-71
2024/04/11 02:42:28;;;;;;;3.33;1.93;;;11.00;99.90;;;;;;5438118;26;20242;-67
2024/04/11 02:44:54;;;;;;;2.80;1.50;;;11.00;99.90;;;;;;5436280;26;20569;-69
2024/04/11 02:47:21;;;;;;;2.87;1.70;;;11.00;99.90;;;;;;5436796;26;20288;-72
2024/04/11 02:49:47;;;;;;;2.60;1.70;;;11.00;99.90;;;;;;5436732;26;20506;-69
2024/04/11 02:52:13;;;;;;;2.23;1.73;;;11.00;99.90;;;;;;5436805;26;21673;-71
2024/04/11 02:54:40;;;;;;;2.80;1.70;;;10.90;99.90;;;;;;5390446;26;20275;-69
2024/04/11 02:57:07;;;;;;;4.47;2.93;;;10.90;99.90;;;;;;5393060;26;21107;-74
2024/04/11 02:59:33;;;;;;;3.10;1.40;;;10.90;99.90;;;;;;5438670;26;20452;-69
2024/04/11 03:01:59;;;;;;;6.70;1.80;;;10.90;99.90;;;;;;5434874;26;20467;-71
2024/04/11 03:04:24;;;;;;;5.20;1.80;;;10.90;99.90;;;;;;5437186;26;20567;-71
2024/04/11 03:06:50;;;;;;;3.70;1.60;;;10.90;99.90;;;;;;5437546;26;20288;-73
2024/04/11 03:09:16;;;;;;;4.10;1.90;;;11.00;99.90;;;;;;5436182;26;20230;-68
2024/04/11 03:11:42;;;;;;;3.80;1.23;;;11.00;99.90;;;;;;5437219;26;20289;-69
2024/04/11 03:14:08;;;;;;;2.73;1.50;;;11.00;99.90;;;;;;5436784;26;20472;-68
2024/04/11 03:16:33;;;;;;;3.40;1.40;;;11.00;99.90;;;;;;5391352;26;20509;-70
2024/04/11 03:18:59;;;;;;;2.50;1.43;;;11.00;99.90;;;;;;5431709;26;20301;-70
2024/04/11 03:21:25;;;;;;;3.63;1.87;;;11.10;99.90;;;;;;5437701;26;20998;-70
2024/04/11 03:23:51;;;;;;;3.77;1.40;;;11.10;99.90;;;;;;5437664;26;20260;-70
2024/04/11 03:26:16;;;;;;;3.33;1.47;;;11.10;99.90;;;;;;5441597;26;20486;-72
2024/04/11 03:28:42;;;;;;;3.60;1.40;;;11.10;99.90;;;;;;5440058;26;20230;-69
2024/04/11 03:31:10;;;;;;;3.80;1.97;;;11.10;99.90;;;;;;5439368;26;20259;-66
2024/04/11 03:33:36;;;;;;;2.90;1.50;;;11.10;99.90;;;;;;5438246;26;20567;-69
2024/04/11 03:36:09;;;;;;;6.83;2.07;;;11.10;99.90;;;;;;5438409;26;20543;-68
2024/04/11 03:38:36;;;;;;;8.10;1.93;;;11.20;99.90;;;;;;5438789;26;20226;-69
2024/04/11 03:41:03;;;;;;;3.30;1.47;;;11.10;99.90;;;;;;5394604;26;20727;-75
2024/04/11 03:43:31;;;;;;;5.50;1.60;;;11.10;99.90;;;;;;5441938;26;20809;-67
2024/04/11 03:46:08;;;;;;;2.77;1.33;;;11.20;99.90;;;;;;5438284;26;20541;-70
2024/04/11 03:48:36;;;;;;;2.83;1.50;;;11.20;99.90;;;;;;5437291;26;20811;-72
2024/04/11 03:51:07;;;;;;;5.70;2.00;;;11.20;99.90;;;;;;5438771;26;20867;-66
2024/04/11 03:53:33;;;;;;;3.97;1.83;;;11.20;99.90;;;;;;5439327;26;20518;-69
2024/04/11 03:55:58;;;;;;;3.37;1.50;;;11.20;99.90;;;;;;5438521;26;20523;-69
2024/04/11 03:58:25;;;;;;;2.30;1.60;;;11.20;99.90;;;;;;5440043;26;20249;-68
2024/04/11 04:00:51;;;;;;;1.90;1.70;;;11.30;99.90;;;;;;5439889;26;20299;-68
2024/04/11 04:03:17;;;;;;;5.30;1.80;;;11.30;99.90;;;;;;5440027;26;20475;-69
2024/04/11 04:05:43;;;;;;;1.60;1.10;;;11.30;99.90;;;;;;5440412;26;20451;-71
2024/04/11 04:08:08;;;;;;;2.47;1.67;;;11.30;99.90;;;;;;5439918;26;20504;-70
2024/04/11 04:10:34;;;;;;;4.90;1.70;;;11.30;99.90;;;;;;5439231;26;20280;-68
2024/04/11 04:13:01;;;;;;;2.53;1.53;;;11.30;99.90;;;;;;5438047;26;20241;-71
2024/04/11 04:15:27;;;;;;;3.37;1.40;;;11.30;99.90;;;;;;5441250;26;20234;-69
2024/04/11 04:17:53;;;;;;;6.93;1.80;;;11.40;99.90;;;;;;5439135;26;20527;-69
2024/04/11 04:20:20;;;;;;;2.30;1.30;;;11.40;99.90;;;;;;5439858;26;20587;-71
2024/04/11 04:22:46;;;;;;;3.83;1.20;;;11.40;99.90;;;;;;5439349;26;20530;-69
2024/04/11 04:25:14;;;;;;;4.40;1.60;;;11.50;99.90;;;;;;5439962;26;20455;-69
2024/04/11 04:27:41;;;;;;;2.90;1.30;;;11.50;99.90;;;;;;5392447;26;20443;-69
2024/04/11 04:30:09;;;;;;;2.47;1.23;;;11.50;99.90;;;;;;5438365;26;21183;-71
2024/04/11 04:32:38;;;;;;;6.20;1.37;;;11.50;99.90;;;;;;5437331;26;21202;-71
2024/04/11 04:35:09;;;;;;;3.60;1.47;;;11.50;99.90;;;;;;5438523;26;20992;-73
2024/04/11 04:37:36;;;;;;;2.43;1.13;;;11.50;99.90;;;;;;5439821;26;20527;-72
2024/04/11 04:40:02;;;;;;;2.63;1.00;;;11.50;99.90;;;;;;5438827;26;20459;-72
2024/04/11 04:42:28;;;;;;;4.10;1.10;;;11.50;99.90;;;;;;5434842;26;20519;-72
2024/04/11 04:44:54;;;;;;;2.53;1.50;;;11.50;99.90;;;;;;5438484;26;20784;-73
2024/04/11 04:47:28;;;;;;;2.30;1.33;;;11.60;99.90;;;;;;5439618;26;20558;-70
2024/04/11 04:49:59;;;;;;;1.90;1.20;;;11.60;99.90;;;;;;5438704;26;20890;-67
2024/04/11 04:52:25;;;;;;;3.70;1.37;;;11.60;99.90;;;;;;5423294;26;20520;-72
2024/04/11 04:54:54;;;;;;;4.60;1.57;;;11.60;99.90;;;;;;5436925;26;20919;-69
2024/04/11 04:57:21;;;;;;;2.80;1.50;;;11.60;99.90;;;;;;5432799;26;20292;-68
2024/04/11 04:59:47;;;;;;;3.43;1.53;;;11.60;99.90;;;;;;5428862;26;21348;-72
2024/04/11 05:02:13;;;;;;;3.70;1.40;;;11.60;99.90;;;;;;5433540;26;20552;-69
2024/04/11 05:04:39;;;;;;;3.60;1.40;;;11.60;99.90;;;;;;5434124;26;20471;-69
2024/04/11 05:07:08;;;;;;;3.33;1.43;;;11.70;99.90;;;;;;5434704;26;20459;-72
2024/04/11 05:09:37;;;;;;;3.30;1.43;;;11.70;99.90;;;;;;5435541;26;20507;-73
2024/04/11 05:12:04;;;;;;;1.53;1.00;;;11.70;99.90;;;;;;5431531;26;20528;-71
2024/04/11 05:14:31;;;;;;;2.60;1.30;;;11.70;99.90;;;;;;5406674;26;20518;-70
2024/04/11 05:17:00;;;;;;;5.93;2.13;;;11.70;99.90;;;;;;5438462;26;20505;-70
2024/04/11 05:19:27;;;;;;;2.60;1.37;;;11.70;99.90;;;;;;5403922;26;20467;-70
2024/04/11 05:21:53;;;;;;;3.43;1.40;;;11.70;99.90;;;;;;5436689;26;20459;-68
2024/04/11 05:24:19;;;;;;;2.70;1.20;;;11.70;99.90;;;;;;5392438;26;20539;-73
2024/04/11 05:26:48;;;;;;;2.70;1.30;;;11.80;99.90;;;;;;5436917;26;20504;-69
2024/04/11 05:29:15;;;;;;;3.70;1.43;;;11.70;99.90;;;;;;5436330;26;20338;-71
2024/04/11 05:31:42;;;;;;;3.17;1.20;;;11.80;99.90;;;;;;5435276;26;20466;-73
2024/04/11 05:34:13;;;;;;;2.27;1.20;;;11.80;99.90;;;;;;5404450;26;20451;-69
2024/04/11 05:36:41;;;;;;;6.80;1.57;;;11.80;99.90;;;;;;5434588;26;20472;-69
2024/04/11 05:39:09;;;;;;;2.33;1.30;;;11.80;99.90;;;;;;5436288;26;20971;-72
2024/04/11 05:41:35;;;;;;;6.00;1.97;;;11.80;99.90;;;;;;5438752;26;20845;-72
2024/04/11 05:44:01;;;;;;;4.10;1.20;;;11.90;99.90;;;;;;5436556;26;20459;-69
2024/04/11 05:46:28;;;;;;;3.23;1.40;;;11.90;99.90;;;;;;5405491;26;20523;-72
2024/04/11 05:48:53;;;;;;;2.47;1.50;;;11.90;99.90;;;;;;5430735;26;20253;-69
2024/04/11 05:51:21;;;;;;;6.57;1.53;;;11.90;99.90;;;;;;5391298;26;20467;-73
2024/04/11 05:53:47;;;;;;;2.13;1.40;;;11.90;99.90;;;;;;5430110;26;20322;-72
2024/04/11 05:56:14;;;;;;;2.50;1.50;;;12.00;99.90;;;;;;5437412;26;20443;-71
2024/04/11 05:58:40;;;;;;;3.00;1.40;;;12.00;99.90;;;;;;5436378;26;20475;-72
2024/04/11 06:01:09;;;;;;;3.40;1.53;;;12.00;99.90;;;;;;5436651;26;20451;-68
2024/04/11 06:03:41;;;;;;;5.53;2.10;;;12.00;99.90;;;;;;5438707;26;21145;-68
2024/04/11 06:06:08;;;;;;;4.07;1.10;;;12.10;99.90;;;;;;5434789;26;20459;-67
2024/04/11 06:08:34;;;;;;;1.63;1.23;;;12.10;99.90;;;;;;5434623;26;20463;-71
2024/04/11 06:11:00;;;;;;;5.73;1.30;;;12.10;99.90;;;;;;5437220;26;20507;-69
2024/04/11 06:13:27;;;;;;;5.10;1.63;;;12.10;99.90;;;;;;5437838;26;20563;-69
2024/04/11 06:15:54;;;;;;;4.00;1.40;;;12.10;99.90;;;;;;5435083;26;20230;-69
2024/04/11 06:18:24;;;;;;;2.87;1.63;;;12.10;99.90;;;;;;5438256;26;20599;-68
2024/04/11 06:20:49;;;;;;;5.90;1.60;;;12.20;99.90;;;;;;5435130;26;21410;-67
2024/04/11 06:23:19;;;;;;;2.87;1.40;;;12.20;99.90;;;;;;5429192;26;20455;-71
2024/04/11 06:25:46;;;;;;;3.53;1.50;;;12.20;99.90;;;;;;5428240;26;20230;-72
2024/04/11 06:28:14;;;;;;;3.87;1.53;;;12.20;99.90;;;;;;5438539;26;20568;-68
2024/04/11 06:30:45;;;;;;;3.03;1.43;;;12.20;99.90;;;;;;5436037;26;20865;-72
2024/04/11 06:33:13;;;;;;;6.40;1.47;;;12.20;99.90;;;;;;5427251;26;21198;-72
2024/04/11 06:35:40;;;;;;;2.33;1.47;;;12.20;99.90;;;;;;5425662;26;21018;-68
2024/04/11 06:38:09;;;;;;;5.10;1.53;;;12.30;99.90;;;;;;5432177;26;20889;-71
2024/04/11 06:40:35;;;;;;;5.97;1.50;;;12.30;99.90;;;;;;5436311;26;20835;-69
2024/04/11 06:43:03;;;;;;;5.17;1.63;;;12.30;99.90;;;;;;5435836;26;20523;-72
2024/04/11 06:45:30;;;;;;;3.77;1.37;;;12.30;99.90;;;;;;5436541;26;20518;-71
2024/04/11 06:47:57;;;;;;;4.50;2.47;;;12.20;99.90;;;;;;5434426;26;20933;-69
2024/04/11 06:50:23;;;;;;;4.23;1.20;;;12.30;99.90;;;;;;5402729;26;20459;-70
2024/04/11 06:52:51;;;;;;;2.33;1.40;;;12.30;99.90;;;;;;5433816;26;20451;-71
2024/04/11 06:55:18;;;;;;;2.43;1.40;;;12.30;99.90;;;;;;5429057;26;20885;-72
2024/04/11 06:57:45;;;;;;;5.20;1.47;;;12.30;99.90;;;;;;5390331;26;20502;-69
2024/04/11 07:00:21;;;;;;;4.43;1.23;;;12.30;99.90;;;;;;5439282;26;20499;-72
2024/04/11 07:02:49;;;;;;;2.67;1.30;;;12.30;99.90;;;;;;5435177;26;20519;-72
2024/04/11 07:05:16;;;;;;;1.90;1.30;;;12.40;99.90;;;;;;5426152;26;20589;-69
2024/04/11 07:07:45;;;;;;;4.07;1.50;;;12.40;99.90;;;;;;5435062;26;20515;-71
2024/04/11 07:10:24;;;;;;;4.47;1.43;;;12.40;99.90;;;;;;5440211;26;20479;-71
2024/04/11 07:12:53;;;;;;;4.40;1.10;;;12.40;99.90;;;;;;5437047;26;21010;-72
2024/04/11 07:15:23;;;;;;;3.57;1.50;;;12.40;99.90;;;;;;5438639;26;20809;-70
2024/04/11 07:17:58;;;;;;;6.03;1.50;;;12.40;99.90;;;;;;5435247;26;20511;-69
2024/04/11 07:20:31;;;;;;;4.70;1.37;;;12.40;99.90;;;;;;5439761;26;20550;-70
2024/04/11 07:23:04;;;;;;;8.07;1.73;;;12.50;99.90;;;;;;5436688;26;20951;-70
2024/04/11 07:25:32;;;;;;;5.23;1.60;;;12.50;99.90;;;;;;5439443;26;20888;-70
2024/04/11 07:28:00;;;;;;;3.63;1.13;;;12.50;99.90;;;;;;5434499;26;21247;-75
2024/04/11 07:30:29;;;;;;;2.40;1.57;;;12.50;99.90;;;;;;5395271;26;20552;-72
2024/04/11 07:32:56;;;;;;;2.90;1.30;;;12.60;99.90;;;;;;5438451;26;20447;-74
2024/04/11 07:35:26;;;;;;;4.27;1.60;;;12.60;99.90;;;;;;5439005;26;20454;-69
2024/04/11 07:37:53;;;;;;;4.00;1.30;;;12.60;99.90;;;;;;5435411;26;20455;-69
2024/04/11 07:40:28;;;;;;;3.73;1.23;;;12.60;99.90;;;;;;5438309;26;20529;-70
2024/04/11 07:43:09;;;;;;;4.87;1.57;;;12.50;99.90;;;;;;5434346;26;20517;-69
2024/04/11 07:45:40;;;;;;;1.77;1.20;;;12.60;99.90;;;;;;5435214;26;20523;-68
2024/04/11 07:48:12;;;;;;;2.47;1.30;;;12.60;99.90;;;;;;5436881;26;20496;-69
2024/04/11 07:50:38;;;;;;;3.63;1.43;;;12.70;99.90;;;;;;5431560;26;20573;-69
2024/04/11 07:53:07;;;;;;;2.53;1.40;;;12.70;99.90;;;;;;5434689;26;20569;-68
2024/04/11 07:55:36;;;;;;;4.50;1.77;;;12.70;99.90;;;;;;5435124;26;20614;-73
2024/04/11 07:58:05;;;;;;;4.43;1.70;;;12.70;99.90;;;;;;5437274;26;20918;-68
2024/04/11 08:00:39;;;;;;;5.20;1.20;;;12.80;99.90;;;;;;5438355;26;20471;-73
2024/04/11 08:03:08;;;;;;;1.93;1.13;;;12.80;99.90;;;;;;5436843;26;20451;-72
2024/04/11 08:05:34;;;;;;;3.57;1.07;;;12.80;99.90;;;;;;5430926;26;20515;-72
2024/04/11 08:08:00;;;;;;;2.80;1.20;;;12.80;99.90;;;;;;5429337;26;20460;-67
2024/04/11 08:10:28;;;;;;;3.40;1.20;;;12.80;99.90;;;;;;5427498;26;20505;-72
2024/04/11 08:12:54;;;;;;;5.77;1.93;;;12.80;99.90;;;;;;5432555;26;20268;-69
2024/04/11 08:15:20;;;;;;;6.03;1.53;;;12.90;99.90;;;;;;5436814;26;20467;-73
2024/04/11 08:17:47;;;;;;;5.17;1.70;;;12.90;99.90;;;;;;5433974;26;20555;-73
2024/04/11 08:20:13;;;;;;;2.37;1.10;;;13.00;99.90;;;;;;5402611;26;20304;-72
2024/04/11 08:22:39;;;;;;;3.30;1.50;;;13.00;99.90;;;;;;5436462;26;20503;-72
2024/04/11 08:25:14;;;;;;;2.97;1.30;;;13.00;99.90;;;;;;5437351;26;20544;-74
2024/04/11 08:27:42;;;;;;;2.77;1.33;;;13.10;99.90;;;;;;5435754;26;20458;-71
2024/04/11 08:30:09;;;;;;;2.90;1.40;;;13.10;99.90;;;;;;5437675;26;20485;-71
2024/04/11 08:32:35;;;;;;;6.63;2.07;;;13.10;99.90;;;;;;5435055;26;20494;-72
2024/04/11 08:35:01;;;;;;;2.50;1.10;;;13.20;99.90;;;;;;5435296;26;20903;-72
2024/04/11 08:37:30;;;;;;;4.07;1.30;;;13.20;99.90;;;;;;5437906;26;20475;-72
2024/04/11 08:39:56;;;;;;;2.83;1.50;;;13.30;99.90;;;;;;5388450;26;20519;-73
2024/04/11 08:42:22;;;;;;;5.37;1.83;;;13.30;99.90;;;;;;5437219;26;20511;-69
2024/04/11 08:44:50;;;;;;;4.57;1.47;;;13.40;99.90;;;;;;5432688;26;20367;-69
2024/04/11 08:47:16;;;;;;;2.03;1.23;;;13.40;99.90;;;;;;5437313;26;20459;-69
2024/04/11 08:49:42;;;;;;;5.40;1.67;;;13.40;99.90;;;;;;5433167;26;20467;-72
2024/04/11 08:52:13;;;;;;;2.97;1.40;;;13.50;99.90;;;;;;5435097;26;20510;-70
2024/04/11 08:54:41;;;;;;;5.30;1.70;;;13.50;99.90;;;;;;5433857;26;20281;-72
2024/04/11 08:57:11;;;;;;;5.40;2.00;;;13.60;99.90;;;;;;5437137;26;20530;-73
2024/04/11 08:59:38;;;;;;;3.30;1.50;;;13.60;99.90;;;;;;5435668;26;20455;-70
2024/04/11 09:02:06;;;;;;;3.37;1.37;;;13.60;99.90;;;;;;5435079;26;21181;-74
2024/04/11 09:04:32;;;;;;;6.50;1.33;;;13.60;99.90;;;;;;5436402;26;20459;-72
2024/04/11 09:07:00;;;;;;;6.10;1.90;;;13.70;99.90;;;;;;5434337;26;20542;-74
2024/04/11 09:09:27;;;;;;;3.50;1.20;;;13.80;99.90;;;;;;5435818;26;20534;-71
2024/04/11 09:11:53;;;;;;;2.20;1.27;;;13.80;99.90;;;;;;5433751;26;20580;-68
2024/04/11 09:14:19;;;;;;;1.90;1.37;;;13.80;99.90;;;;;;5434641;26;20475;-71
2024/04/11 09:16:45;;;;;;;7.37;1.60;;;13.80;99.90;;;;;;5434099;26;20515;-71
2024/04/11 09:19:11;;;;;;;6.07;1.60;;;13.80;99.90;;;;;;5436522;26;20597;-72
2024/04/11 09:21:44;;;;;;;2.70;1.50;;;13.80;99.90;;;;;;5435582;26;20531;-68
2024/04/11 09:24:16;;;;;;;5.40;1.30;;;13.80;99.90;;;;;;5434873;26;20720;-70
2024/04/11 09:26:46;;;;;;;2.63;1.43;;;13.80;99.90;;;;;;5432792;26;20459;-74
2024/04/11 09:29:13;;;;;;;4.10;1.73;;;13.80;99.90;;;;;;5435383;26;20474;-69
2024/04/11 09:31:39;;;;;;;9.07;1.97;;;13.80;99.90;;;;;;5431491;26;20455;-69
2024/04/11 09:34:11;;;;;;;2.37;1.20;;;13.80;99.90;;;;;;5394364;26;20520;-70
2024/04/11 09:36:47;;;;;;;7.40;1.63;;;13.90;99.90;;;;;;5433328;26;20463;-70
2024/04/11 09:39:41;;;;;;;3.40;2.00;;;13.90;99.90;;;;;;5436180;26;20548;-72
2024/04/11 09:42:19;;;;;;;3.53;1.40;;;14.00;99.90;;;;;;5434809;26;20515;-72
2024/04/11 09:44:47;;;;;;;3.70;1.30;;;14.00;99.90;;;;;;5430766;26;20522;-68
2024/04/11 09:47:19;;;;;;;7.77;1.90;;;14.10;99.90;;;;;;5435425;26;20463;-68
2024/04/11 09:49:53;;;;;;;3.40;1.40;;;14.30;99.90;;;;;;5430722;26;20597;-72
2024/04/11 09:52:22;;;;;;;4.33;1.77;;;14.40;99.90;;;;;;5436118;26;20511;-69
2024/04/11 09:54:51;;;;;;;3.53;1.73;;;14.40;99.90;;;;;;5432774;26;20894;-70
2024/04/11 09:57:19;;;;;;;4.57;1.40;;;14.40;99.90;;;;;;5434144;26;20459;-69
2024/04/11 09:59:44;;;;;;;2.23;1.37;;;14.40;99.90;;;;;;5428924;26;20549;-70
2024/04/11 10:02:13;;;;;;;6.80;1.37;;;14.40;99.90;;;;;;5435026;26;20460;-68
2024/04/11 10:04:42;;;;;;;4.00;1.73;;;14.50;99.90;;;;;;5432941;26;20272;-72
2024/04/11 10:07:09;;;;;;;6.97;1.43;;;14.40;99.90;;;;;;5434706;26;20506;-72
2024/04/11 10:09:35;;;;;;;4.60;1.97;;;14.40;99.90;;;;;;5420416;26;21235;-66
2024/04/11 10:12:05;;;;;;;4.63;1.63;;;14.50;99.90;;;;;;5432792;26;20460;-69
2024/04/11 10:14:32;;;;;;;3.77;1.40;;;14.50;99.90;;;;;;5432744;26;20519;-71
2024/04/11 10:17:04;;;;;;;5.60;1.70;;;14.50;99.90;;;;;;5432306;26;20450;-72
2024/04/11 10:19:32;;;;;;;4.63;1.50;;;14.60;99.90;;;;;;5434834;26;20519;-71
2024/04/11 10:22:05;;;;;;;4.40;1.33;;;14.60;99.90;;;;;;5435722;26;20521;-71
2024/04/11 10:24:37;;;;;;;5.07;1.53;;;14.70;99.90;;;;;;5437305;26;20577;-72
2024/04/11 10:27:11;;;;;;;6.07;1.70;;;14.80;99.90;;;;;;5436462;26;20535;-71
2024/04/11 10:29:43;;;;;;;5.07;1.57;;;14.90;99.90;;;;;;5435415;26;20463;-73
2024/04/11 10:32:22;;;;;;;6.07;1.50;;;14.80;99.90;;;;;;5437632;26;20569;-70
2024/04/11 10:34:58;;;;;;;2.00;1.00;;;14.80;99.90;;;;;;5432752;26;20459;-67
2024/04/11 10:37:25;;;;;;;4.63;1.53;;;14.80;99.90;;;;;;5436657;26;20463;-67
2024/04/11 10:39:57;;;;;;;4.00;1.60;;;14.80;99.90;;;;;;5433259;26;20650;-72
2024/04/11 10:42:36;;;;;;;6.17;1.87;;;14.80;99.90;;;;;;5435720;26;20459;-71
2024/04/11 10:45:11;;;;;;;4.47;1.40;;;14.80;99.90;;;;;;5435793;26;21051;-69
2024/04/11 10:47:41;;;;;;;7.80;1.50;;;14.80;99.90;;;;;;5434753;26;21128;-73
2024/04/11 10:50:13;;;;;;;4.73;1.37;;;14.70;99.90;;;;;;5435641;26;20592;-70
2024/04/11 10:52:39;;;;;;;2.60;1.30;;;14.70;99.90;;;;;;5434421;26;20548;-68
2024/04/11 10:55:22;;;;;;;4.23;1.67;;;14.70;99.90;;;;;;5437213;26;20897;-70
2024/04/11 10:58:08;;;;;;;8.63;1.70;;;14.70;99.90;;;;;;5432916;26;20455;-70
2024/04/11 11:01:07;;;;;;;4.27;1.47;;;14.70;99.90;;;;;;5435105;26;20463;-73
2024/04/11 11:03:40;;;;;;;4.20;1.50;;;14.70;99.90;;;;;;5434915;26;20952;-68
2024/04/11 11:06:15;;;;;;;5.83;1.87;;;14.70;99.90;;;;;;5434922;26;20459;-72
2024/04/11 11:08:45;;;;;;;5.40;1.50;;;14.80;99.90;;;;;;5432894;26;20458;-68
2024/04/11 11:11:14;;;;;;;2.07;1.80;;;14.90;99.90;;;;;;5435014;26;20471;-68
2024/04/11 11:13:47;;;;;;;5.20;1.97;;;14.90;99.90;;;;;;5430705;26;20529;-69
2024/04/11 11:16:20;;;;;;;2.77;1.50;;;14.90;99.90;;;;;;5434925;26;20515;-75
2024/04/11 11:18:51;;;;;;;6.70;1.93;;;15.00;99.90;;;;;;5432531;26;20460;-69
2024/04/11 11:21:19;;;;;;;3.80;1.57;;;14.90;99.90;;;;;;5434090;26;20467;-75
2024/04/11 11:23:46;;;;;;;2.47;1.40;;;14.90;99.90;;;;;;5417357;26;20515;-74
2024/04/11 11:26:13;;;;;;;2.80;1.27;;;15.00;99.90;;;;;;5434976;26;20608;-67
2024/04/11 11:28:38;;;;;;;4.53;1.90;;;15.00;99.90;;;;;;5402618;26;20460;-70
2024/04/11 11:31:04;;;;;;;3.80;2.03;;;14.90;99.90;;;;;;5434465;26;20447;-69
2024/04/11 11:33:30;;;;;;;5.03;1.73;;;14.90;99.90;;;;;;5428939;26;20241;-73
2024/04/11 11:35:56;;;;;;;3.53;1.70;;;14.90;99.90;;;;;;5390151;26;20960;-73
2024/04/11 11:38:22;;;;;;;4.73;2.30;;;15.00;99.90;;;;;;5434599;26;20515;-69
2024/04/11 11:40:53;;;;;;;7.10;1.90;;;15.00;99.90;;;;;;5432418;26;20272;-70
2024/04/11 11:43:20;;;;;;;3.60;1.50;;;15.00;99.90;;;;;;5432454;26;20515;-69
2024/04/11 11:48:50;;;;;;;7.53;2.23;;;15.00;99.90;;;;;;5248844;27;20514;-72
2024/04/11 11:51:19;;;;;;;9.27;2.37;;;15.00;99.90;;;;;;5249557;27;21005;-68
2024/04/11 11:53:45;;;;;;;6.00;1.87;;;15.10;99.90;;;;;;5337630;26;20257;-71
2024/04/11 11:56:14;;;;;;;3.77;2.07;;;15.10;99.90;;;;;;5438852;26;20471;-72
2024/04/11 11:58:46;;;;;;;4.00;1.93;;;15.30;99.90;;;;;;5435249;26;21182;-71
2024/04/11 12:01:35;;;;;;;3.20;2.57;;;15.40;99.90;;;;;;5436060;26;20486;-74
2024/04/11 12:04:02;;;;;;;6.70;2.67;;;15.40;99.90;;;;;;5405756;26;20452;-68
2024/04/11 12:06:33;;;;;;;5.33;2.40;;;15.40;99.90;;;;;;5406861;26;20534;-69
2024/04/11 12:09:13;;;;;;;6.07;2.80;;;15.60;99.90;;;;;;5435056;26;21376;-71
2024/04/11 12:14:42;;;;;;;6.53;3.50;;;15.60;99.90;;;;;;5425428;26;21158;-70
2024/04/11 12:17:10;;;;;;;5.03;2.83;;;15.50;99.90;;;;;;5437679;26;21357;-73
2024/04/11 12:19:36;;;;;;;4.73;2.90;;;15.50;99.90;;;;;;5434630;26;20467;-73
2024/04/11 12:22:15;;;;;;;8.17;3.60;;;15.60;99.90;;;;;;5433620;26;20535;-71
2024/04/11 12:24:45;;;;;;;8.10;2.97;;;15.60;99.90;;;;;;5429162;26;21019;-70
2024/04/11 12:27:13;;;;;;;5.07;3.10;;;15.60;99.90;;;;;;5403439;26;20540;-70
2024/04/11 12:29:43;;;;;;;4.53;2.93;;;15.70;99.90;;;;;;5426194;26;20505;-70
2024/04/11 12:32:12;;;;;;;3.60;2.97;;;15.60;99.90;;;;;;5435065;26;20509;-71
2024/04/11 12:34:42;;;;;;;6.13;2.43;;;15.60;99.90;;;;;;5428752;26;20515;-73
2024/04/11 12:37:15;;;;;;;6.00;2.80;;;15.60;99.90;;;;;;5436085;26;20539;-69
2024/04/11 12:39:56;;;;;;;3.87;3.00;;;15.60;99.90;;;;;;5432965;26;20439;-73
2024/04/11 12:42:29;;;;;;;4.30;2.93;;;15.60;99.90;;;;;;5433820;26;21397;-70
2024/04/11 12:44:58;;;;;;;5.13;2.70;;;15.60;99.90;;;;;;5432418;26;20467;-69
2024/04/11 12:47:38;;;;;;;5.33;2.77;;;15.50;99.90;;;;;;5431963;26;20463;-73
2024/04/11 12:50:14;;;;;;;4.03;3.07;;;15.50;99.90;;;;;;5436702;26;20494;-71
2024/04/11 12:52:44;;;;;;;3.97;3.00;;;15.40;99.90;;;;;;5433360;26;20565;-71
2024/04/11 12:55:11;;;;;;;4.40;2.90;;;15.40;99.90;;;;;;5437046;26;21076;-74
2024/04/11 12:57:37;;;;;;;8.60;3.00;;;15.40;99.90;;;;;;5433051;26;20518;-71
2024/04/11 13:00:34;;;;;;;4.83;2.90;;;15.30;99.90;;;;;;5434900;26;20818;-73
2024/04/11 13:03:06;;;;;;;4.03;3.23;;;15.30;99.90;;;;;;5434286;26;20575;-70